createdAt,value
2018-07-17T00:01:15.957Z,65.58
2018-07-17T00:03:44.576Z,64.90
2018-07-17T00:06:14.644Z,64.82
2018-07-17T00:08:43.343Z,64.68
2018-07-17T00:11:13.496Z,64.63
2018-07-17T00:13:42.604Z,64.92
2018-07-17T00:16:11.168Z,63.74
2018-07-17T00:18:39.833Z,64.13
2018-07-17T00:21:10.903Z,63.98
2018-07-17T00:23:39.484Z,64.29
2018-07-17T00:26:08.112Z,64.65
2018-07-17T00:28:36.666Z,64.15
2018-07-17T00:31:05.763Z,63.96
2018-07-17T00:33:34.389Z,64.98
2018-07-17T00:36:02.964Z,64.88
2018-07-17T00:38:31.564Z,64.52
2018-07-17T00:41:00.125Z,64.14
2018-07-17T00:43:28.716Z,65.70
2018-07-17T00:45:57.650Z,66.06
2018-07-17T00:48:26.248Z,66.33
2018-07-17T00:50:54.844Z,66.23
2018-07-17T00:53:23.415Z,65.90
2018-07-17T00:55:51.953Z,65.62
2018-07-17T00:58:20.524Z,66.02
2018-07-17T01:00:48.159Z,65.90
2018-07-17T01:03:24.662Z,66.81
2018-07-17T01:05:58.495Z,66.89
2018-07-17T01:08:32.281Z,67.30
2018-07-17T01:11:06.148Z,66.83
2018-07-17T01:14:06.894Z,66.90
2018-07-17T01:16:35.664Z,66.58
2018-07-17T01:19:04.241Z,67.03
2018-07-17T01:21:32.884Z,66.62
2018-07-17T01:24:01.520Z,66.93
2018-07-17T01:26:30.152Z,67.27
2018-07-17T01:28:58.792Z,66.93
2018-07-17T01:31:27.453Z,67.66
2018-07-17T01:33:56.017Z,67.55
2018-07-17T01:36:24.570Z,67.85
2018-07-17T01:38:53.160Z,68.05
2018-07-17T01:41:21.761Z,68.10
2018-07-17T01:43:50.413Z,67.88
2018-07-17T01:46:19.153Z,68.04
2018-07-17T01:48:47.802Z,68.03
2018-07-17T01:51:16.415Z,68.31
2018-07-17T01:53:45.068Z,68.27
2018-07-17T01:56:13.629Z,67.98
2018-07-17T01:58:42.323Z,68.07
2018-07-17T02:01:10.971Z,68.66
2018-07-17T02:03:39.677Z,68.60
2018-07-17T02:06:09.539Z,68.43
2018-07-17T02:08:38.479Z,68.06
2018-07-17T02:11:07.152Z,68.44
2018-07-17T02:13:35.703Z,68.08
2018-07-17T02:16:04.319Z,68.74
2018-07-17T02:18:32.911Z,68.72
2018-07-17T02:21:01.836Z,68.53
2018-07-17T02:23:30.401Z,69.10
2018-07-17T02:25:59.060Z,69.11
2018-07-17T02:28:27.610Z,68.58
2018-07-17T02:30:56.218Z,68.64
2018-07-17T02:33:24.794Z,68.64
2018-07-17T02:35:53.376Z,69.35
2018-07-17T02:38:21.949Z,69.36
2018-07-17T02:40:50.684Z,69.40
2018-07-17T02:43:19.213Z,69.41
2018-07-17T02:45:47.791Z,68.94
2018-07-17T02:48:16.413Z,69.10
2018-07-17T02:50:45.014Z,68.97
2018-07-17T02:53:13.799Z,68.83
2018-07-17T02:55:42.786Z,69.03
2018-07-17T02:58:11.355Z,69.24
2018-07-17T03:00:40.432Z,68.97
2018-07-17T03:03:09.198Z,69.62
2018-07-17T03:05:37.766Z,69.21
2018-07-17T03:08:06.361Z,69.25
2018-07-17T03:10:34.931Z,70.17
2018-07-17T03:13:03.506Z,70.02
2018-07-17T03:15:32.300Z,69.87
2018-07-17T03:18:00.872Z,70.00
2018-07-17T03:20:29.719Z,70.01
2018-07-17T03:22:58.360Z,69.37
2018-07-17T03:25:27.113Z,70.17
2018-07-17T03:27:55.659Z,69.76
2018-07-17T03:30:24.552Z,69.27
2018-07-17T03:32:53.159Z,69.16
2018-07-17T03:35:21.713Z,68.73
2018-07-17T03:37:50.276Z,68.79
2018-07-17T03:40:18.881Z,68.62
2018-07-17T03:42:47.628Z,68.17
2018-07-17T03:45:16.208Z,68.87
2018-07-17T03:47:44.753Z,68.95
2018-07-17T03:50:13.337Z,68.79
2018-07-17T03:52:41.940Z,69.12
2018-07-17T03:55:14.143Z,68.97
2018-07-17T03:57:42.956Z,69.42
2018-07-17T04:00:11.556Z,69.72
2018-07-17T04:02:40.190Z,69.56
2018-07-17T04:05:08.734Z,69.89
2018-07-17T04:07:38.986Z,69.72
2018-07-17T04:10:07.606Z,69.26
2018-07-17T04:12:36.325Z,69.24
2018-07-17T04:15:04.968Z,69.69
2018-07-17T04:17:33.517Z,69.01
2018-07-17T04:20:02.075Z,69.46
2018-07-17T04:22:30.648Z,69.43
2018-07-17T04:24:59.194Z,69.17
2018-07-17T04:27:28.192Z,68.73
2018-07-17T04:29:56.799Z,68.21
2018-07-17T04:32:25.384Z,68.85
2018-07-17T04:34:53.983Z,68.45
2018-07-17T04:37:22.969Z,68.54
2018-07-17T04:39:51.579Z,68.65
2018-07-17T04:42:20.738Z,68.40
2018-07-17T04:44:49.317Z,67.98
2018-07-17T04:47:17.933Z,67.45
2018-07-17T04:49:46.485Z,67.80
2018-07-17T04:52:15.091Z,67.71
2018-07-17T04:54:43.765Z,67.73
2018-07-17T04:57:12.683Z,68.04
2018-07-17T04:59:41.454Z,68.51
2018-07-17T05:02:10.162Z,68.60
2018-07-17T05:04:38.744Z,68.81
2018-07-17T05:07:07.332Z,68.86
2018-07-17T05:09:35.922Z,68.82
2018-07-17T05:12:04.534Z,68.55
2018-07-17T05:14:33.079Z,68.10
2018-07-17T05:17:01.732Z,67.65
2018-07-17T05:19:30.325Z,66.46
2018-07-17T05:21:58.857Z,65.99
2018-07-17T05:24:27.450Z,65.29
2018-07-17T05:26:56.071Z,66.02
2018-07-17T05:29:26.260Z,65.80
2018-07-17T05:31:54.851Z,64.97
2018-07-17T05:34:23.594Z,65.02
2018-07-17T05:36:52.209Z,65.44
2018-07-17T05:39:21.030Z,65.04
2018-07-17T05:41:49.758Z,63.70
2018-07-17T05:44:18.545Z,62.44
2018-07-17T05:46:47.127Z,63.44
2018-07-17T05:49:15.664Z,63.00
2018-07-17T05:51:44.246Z,62.84
2018-07-17T05:54:12.795Z,63.00
2018-07-17T05:56:41.368Z,62.97
2018-07-17T05:59:09.961Z,62.52
2018-07-17T06:01:38.593Z,63.19
2018-07-17T06:04:07.245Z,62.59
2018-07-17T06:06:37.268Z,62.82
2018-07-17T06:09:08.009Z,62.88
2018-07-17T06:11:36.569Z,62.27
2018-07-17T06:14:05.165Z,62.51
2018-07-17T06:16:33.741Z,62.08
2018-07-17T06:19:02.594Z,62.02
2018-07-17T06:21:31.216Z,61.65
2018-07-17T06:23:59.782Z,61.65
2018-07-17T06:26:28.531Z,61.43
2018-07-17T06:28:57.324Z,61.45
2018-07-17T06:31:25.891Z,61.82
2018-07-17T06:33:54.476Z,61.27
2018-07-17T06:36:23.137Z,61.50
2018-07-17T06:38:51.831Z,62.86
2018-07-17T06:41:20.333Z,62.04
2018-07-17T06:43:49.117Z,61.92
2018-07-17T06:46:17.852Z,62.92
2018-07-17T06:48:46.672Z,61.97
2018-07-17T06:51:16.192Z,62.12
2018-07-17T06:53:44.792Z,61.53
2018-07-17T06:56:13.401Z,61.98
2018-07-17T06:58:42.066Z,61.82
2018-07-17T07:01:10.789Z,61.92
2018-07-17T07:03:39.377Z,62.11
2018-07-17T07:06:08.038Z,61.48
2018-07-17T07:08:36.661Z,62.29
2018-07-17T07:11:05.919Z,62.52
2018-07-17T07:13:34.935Z,61.40
2018-07-17T07:16:03.567Z,61.73
2018-07-17T07:18:32.165Z,61.85
2018-07-17T07:21:00.756Z,61.86
2018-07-17T07:23:29.590Z,61.17
2018-07-17T07:25:58.159Z,61.34
2018-07-17T07:28:26.744Z,61.42
2018-07-17T07:30:55.350Z,61.30
2018-07-17T07:33:24.591Z,61.77
2018-07-17T07:35:53.122Z,61.16
2018-07-17T07:38:21.672Z,61.06
2018-07-17T07:40:50.267Z,61.25
2018-07-17T07:43:19.251Z,61.71
2018-07-17T07:45:47.786Z,61.28
2018-07-17T07:48:16.448Z,60.42
2018-07-17T07:50:45.154Z,60.79
2018-07-17T07:53:14.369Z,60.44
2018-07-17T07:55:43.386Z,60.25
2018-07-17T07:58:11.884Z,60.11
2018-07-17T08:00:40.610Z,60.05
2018-07-17T08:03:10.533Z,60.85
2018-07-17T08:05:39.589Z,61.91
2018-07-17T08:08:08.268Z,61.21
2018-07-17T08:10:36.855Z,60.93
2018-07-17T08:13:06.444Z,60.37
2018-07-17T08:15:35.170Z,60.08
2018-07-17T08:18:03.811Z,59.51
2018-07-17T08:20:32.380Z,62.28
2018-07-17T08:23:00.986Z,61.58
2018-07-17T08:25:31.334Z,61.17
2018-07-17T08:27:59.909Z,61.07
2018-07-17T08:30:29.452Z,59.98
2018-07-17T08:32:58.037Z,60.78
2018-07-17T08:35:26.640Z,59.49
2018-07-17T08:37:55.213Z,59.60
2018-07-17T08:40:23.905Z,60.13
2018-07-17T08:42:52.590Z,58.35
2018-07-17T08:45:21.571Z,58.71
2018-07-17T08:47:50.135Z,58.69
2018-07-17T08:50:18.833Z,59.28
2018-07-17T08:52:47.374Z,58.23
2018-07-17T08:55:19.122Z,58.67
2018-07-17T08:57:47.760Z,58.56
2018-07-17T09:00:16.340Z,58.68
2018-07-17T09:02:45.216Z,58.09
2018-07-17T09:05:16.139Z,59.18
2018-07-17T09:07:44.761Z,59.27
2018-07-17T09:10:13.309Z,59.45
2018-07-17T09:12:41.848Z,58.88
2018-07-17T09:15:14.417Z,58.33
2018-07-17T09:17:43.017Z,57.73
2018-07-17T09:20:11.708Z,57.59
2018-07-17T09:22:40.367Z,55.39
2018-07-17T09:25:09.054Z,55.78
2018-07-17T09:27:37.612Z,55.32
2018-07-17T09:30:06.872Z,55.00
2018-07-17T09:32:35.456Z,54.98
2018-07-17T09:35:04.148Z,55.50
2018-07-17T09:37:32.726Z,55.45
2018-07-17T09:40:01.693Z,54.86
2018-07-17T09:42:30.298Z,54.22
2018-07-17T09:44:58.914Z,54.81
2018-07-17T09:47:27.507Z,53.57
2018-07-17T09:49:56.064Z,53.63
2018-07-17T09:52:24.643Z,52.71
2018-07-17T09:54:53.191Z,52.43
2018-07-17T09:57:21.895Z,50.04
2018-07-17T09:59:50.460Z,51.84
2018-07-17T10:02:24.276Z,51.80
2018-07-17T10:04:53.682Z,50.54
2018-07-17T10:07:23.043Z,51.18
2018-07-17T10:09:52.654Z,51.28
2018-07-17T10:12:21.616Z,51.09
2018-07-17T10:14:50.183Z,53.00
2018-07-17T10:17:18.743Z,52.46
2018-07-17T10:19:47.356Z,52.29
2018-07-17T10:22:15.959Z,52.71
2018-07-17T10:24:44.896Z,53.89
2018-07-17T10:27:14.080Z,51.76
2018-07-17T10:29:43.054Z,52.27
2018-07-17T10:32:11.851Z,51.63
2018-07-17T10:34:40.417Z,50.13
2018-07-17T10:37:10.600Z,48.17
2018-07-17T10:39:39.197Z,47.34
2018-07-17T10:42:07.814Z,47.87
2018-07-17T10:44:36.398Z,48.02
2018-07-17T10:47:04.992Z,47.67
2018-07-17T10:49:34.154Z,46.85
2018-07-17T10:52:02.775Z,45.55
2018-07-17T10:54:31.315Z,46.47
2018-07-17T10:56:59.909Z,46.47
2018-07-17T10:59:28.828Z,46.76
2018-07-17T11:01:57.398Z,47.40
2018-07-17T11:04:26.115Z,46.98
2018-07-17T11:06:54.724Z,47.38
2018-07-17T11:09:23.312Z,47.97
2018-07-17T11:11:51.989Z,48.45
2018-07-17T11:14:20.652Z,48.01
2018-07-17T11:16:49.279Z,47.17
2018-07-17T11:19:18.165Z,47.18
2018-07-17T11:21:46.748Z,48.70
2018-07-17T11:24:15.464Z,48.86
2018-07-17T11:26:44.016Z,49.03
2018-07-17T11:29:15.747Z,48.27
2018-07-17T11:31:44.280Z,48.74
2018-07-17T11:34:13.127Z,49.68
2018-07-17T11:36:41.943Z,48.89
2018-07-17T11:39:10.824Z,48.69
2018-07-17T11:41:39.631Z,48.21
2018-07-17T11:44:08.236Z,47.05
2018-07-17T11:46:36.823Z,46.86
2018-07-17T11:49:05.799Z,47.30
2018-07-17T11:51:34.402Z,47.00
2018-07-17T11:54:02.975Z,46.87
2018-07-17T11:56:31.589Z,47.26
2018-07-17T11:59:00.189Z,48.88
2018-07-17T12:01:28.717Z,47.73
2018-07-17T12:03:57.272Z,47.33
2018-07-17T12:06:26.012Z,48.86
2018-07-17T12:08:55.099Z,48.12
2018-07-17T12:11:36.786Z,49.59
2018-07-17T12:14:05.444Z,48.88
2018-07-17T12:16:34.812Z,49.55
2018-07-17T12:19:03.426Z,49.11
2018-07-17T12:21:32.032Z,48.34
2018-07-17T12:24:00.663Z,47.48
2018-07-17T12:26:29.295Z,47.91
2018-07-17T12:28:57.853Z,46.96
2018-07-17T12:31:26.759Z,46.85
2018-07-17T12:33:55.438Z,47.27
2018-07-17T12:36:24.300Z,46.51
2018-07-17T12:38:52.952Z,45.62
2018-07-17T12:41:21.789Z,45.11
2018-07-17T12:43:50.357Z,45.51
2018-07-17T12:46:20.136Z,44.52
2018-07-17T12:48:48.736Z,45.46
2018-07-17T12:51:17.396Z,45.68
2018-07-17T12:53:46.229Z,46.12
2018-07-17T12:56:14.844Z,45.11
2018-07-17T12:58:43.488Z,44.97
2018-07-17T13:01:12.070Z,45.87
2018-07-17T13:03:40.704Z,46.12
2018-07-17T13:06:09.299Z,45.47
2018-07-17T13:08:37.895Z,44.71
2018-07-17T13:11:06.575Z,44.43
2018-07-17T13:13:35.151Z,45.40
2018-07-17T13:16:03.742Z,46.02
2018-07-17T13:18:32.284Z,43.84
2018-07-17T13:21:00.910Z,43.75
2018-07-17T13:23:29.459Z,43.47
2018-07-17T13:25:58.219Z,42.91
2018-07-17T13:28:26.771Z,43.82
2018-07-17T13:30:55.423Z,43.46
2018-07-17T13:33:24.550Z,43.10
2018-07-17T13:35:53.130Z,43.22
2018-07-17T13:38:21.665Z,43.71
2018-07-17T13:40:50.252Z,43.48
2018-07-17T13:43:19.326Z,43.46
2018-07-17T13:45:48.163Z,43.12
2018-07-17T13:48:16.829Z,42.24
2018-07-17T13:50:45.392Z,40.92
2018-07-17T13:53:14.369Z,40.09
2018-07-17T13:55:42.986Z,40.20
2018-07-17T13:58:11.741Z,39.55
2018-07-17T14:00:40.626Z,40.12
2018-07-17T14:03:11.791Z,39.89
2018-07-17T14:05:40.979Z,39.84
2018-07-17T14:08:09.607Z,39.70
2018-07-17T14:10:39.182Z,40.10
2018-07-17T14:13:08.669Z,39.60
2018-07-17T14:15:37.368Z,40.54
2018-07-17T14:18:06.941Z,39.35
2018-07-17T14:20:35.524Z,39.18
2018-07-17T14:23:04.148Z,39.52
2018-07-17T14:25:33.141Z,39.01
2018-07-17T14:28:01.826Z,39.83
2018-07-17T14:30:30.395Z,40.70
2018-07-17T14:32:59.063Z,40.05
2018-07-17T14:35:27.826Z,40.80
2018-07-17T14:37:56.402Z,39.91
2018-07-17T14:40:25.024Z,37.35
2018-07-17T14:42:53.604Z,37.47
2018-07-17T14:45:22.203Z,38.06
2018-07-17T14:47:50.825Z,38.54
2018-07-17T14:50:19.433Z,37.90
2018-07-17T14:52:47.995Z,38.52
2018-07-17T14:55:17.351Z,38.81
2018-07-17T14:57:45.903Z,38.68
2018-07-17T15:00:14.517Z,39.35
2018-07-17T15:02:43.224Z,39.88
2018-07-17T15:05:12.807Z,40.21
2018-07-17T15:07:41.529Z,40.44
2018-07-17T15:10:10.504Z,40.39
2018-07-17T15:12:39.091Z,40.79
2018-07-17T15:15:08.005Z,41.51
2018-07-17T15:17:36.605Z,40.86
2018-07-17T15:20:05.502Z,40.79
2018-07-17T15:22:34.092Z,40.66
2018-07-17T15:25:02.766Z,41.61
2018-07-17T15:27:31.307Z,42.65
2018-07-17T15:29:59.856Z,41.88
2018-07-17T15:32:28.424Z,41.64
2018-07-17T15:34:56.992Z,40.89
2018-07-17T15:37:25.611Z,40.52
2018-07-17T15:39:54.194Z,41.37
2018-07-17T15:42:22.989Z,40.73
2018-07-17T15:44:51.554Z,40.65
2018-07-17T15:47:20.132Z,40.60
2018-07-17T15:49:48.687Z,41.34
2018-07-17T15:52:17.548Z,41.86
2018-07-17T15:54:46.239Z,41.44
2018-07-17T15:57:14.894Z,42.29
2018-07-17T15:59:43.487Z,42.36
2018-07-17T16:02:12.052Z,42.32
2018-07-17T16:04:41.491Z,41.50
2018-07-17T16:07:10.097Z,42.04
2018-07-17T16:09:38.692Z,41.69
2018-07-17T16:12:07.273Z,40.95
2018-07-17T16:14:35.851Z,40.63
2018-07-17T16:17:11.085Z,40.93
2018-07-17T16:19:39.679Z,39.91
2018-07-17T16:22:08.650Z,40.17
2018-07-17T16:24:37.403Z,41.35
2018-07-17T16:27:06.232Z,41.00
2018-07-17T16:29:34.898Z,41.09
2018-07-17T16:32:03.599Z,39.92
2018-07-17T16:34:32.176Z,40.35
2018-07-17T16:37:00.808Z,40.67
2018-07-17T16:39:29.388Z,40.65
2018-07-17T16:41:57.997Z,40.27
2018-07-17T16:44:26.594Z,39.91
2018-07-17T16:46:55.159Z,40.15
2018-07-17T16:49:23.875Z,39.89
2018-07-17T16:51:52.488Z,39.75
2018-07-17T16:54:21.281Z,39.60
2018-07-17T16:56:49.903Z,40.74
2018-07-17T16:59:18.472Z,40.32
2018-07-17T17:01:47.188Z,41.21
2018-07-17T17:04:15.918Z,41.53
2018-07-17T17:06:44.640Z,41.32
2018-07-17T17:09:13.604Z,41.48
2018-07-17T17:11:42.653Z,42.08
2018-07-17T17:14:11.415Z,42.53
2018-07-17T17:16:40.334Z,43.34
2018-07-17T17:19:08.988Z,44.18
2018-07-17T17:21:37.871Z,44.68
2018-07-17T17:24:06.675Z,46.06
2018-07-17T17:26:35.216Z,46.21
2018-07-17T17:29:03.905Z,47.36
2018-07-17T17:31:32.515Z,48.21
2018-07-17T17:34:01.076Z,47.90
2018-07-17T17:36:29.678Z,48.48
2018-07-17T17:38:58.272Z,48.49
2018-07-17T17:41:26.899Z,48.64
2018-07-17T17:43:55.440Z,49.04
2018-07-17T17:46:24.068Z,49.11
2018-07-17T17:48:52.592Z,49.16
2018-07-17T17:51:21.301Z,49.31
2018-07-17T17:53:49.921Z,49.27
2018-07-17T17:56:18.480Z,49.19
2018-07-17T17:58:47.078Z,50.21
2018-07-17T18:01:15.653Z,50.46
2018-07-17T18:03:44.423Z,50.12
2018-07-17T18:06:13.845Z,50.82
2018-07-17T18:08:42.560Z,51.18
2018-07-17T18:11:11.319Z,51.51
2018-07-17T18:13:39.869Z,51.69
2018-07-17T18:16:08.512Z,51.33
2018-07-17T18:18:37.160Z,51.41
2018-07-17T18:21:08.617Z,51.62
2018-07-17T18:23:37.409Z,51.96
2018-07-17T18:26:05.987Z,52.39
2018-07-17T18:28:34.676Z,52.33
2018-07-17T18:31:03.257Z,52.34
2018-07-17T18:33:31.879Z,52.33
2018-07-17T18:36:00.549Z,53.07
2018-07-17T18:38:29.124Z,52.41
2018-07-17T18:40:57.678Z,53.29
2018-07-17T18:43:26.252Z,53.07
2018-07-17T18:45:54.889Z,52.90
2018-07-17T18:48:23.560Z,53.04
2018-07-17T18:50:52.132Z,53.43
2018-07-17T18:53:20.704Z,53.55
2018-07-17T18:55:49.507Z,53.25
2018-07-17T18:58:18.132Z,53.01
2018-07-17T19:00:46.682Z,53.17
2018-07-17T19:03:15.236Z,52.77
2018-07-17T19:05:43.908Z,53.38
2018-07-17T19:08:12.477Z,52.87
2018-07-17T19:10:41.063Z,53.03
2018-07-17T19:13:09.647Z,53.19
2018-07-17T19:15:38.405Z,53.43
2018-07-17T19:18:07.032Z,53.16
2018-07-17T19:20:35.607Z,52.88
2018-07-17T19:23:04.278Z,53.71
2018-07-17T19:25:33.000Z,53.70
2018-07-17T19:28:01.604Z,53.75
2018-07-17T19:30:30.227Z,54.45
2018-07-17T19:32:58.835Z,54.66
2018-07-17T19:35:27.754Z,54.56
2018-07-17T19:37:56.422Z,54.58
2018-07-17T19:40:25.086Z,54.48
2018-07-17T19:42:53.906Z,54.06
2018-07-17T19:45:22.569Z,54.99
2018-07-17T19:47:51.125Z,54.92
2018-07-17T19:50:19.716Z,54.79
2018-07-17T19:52:48.352Z,54.54
2018-07-17T19:55:17.112Z,54.84
2018-07-17T19:57:45.711Z,54.79
2018-07-17T20:00:14.437Z,54.65
2018-07-17T20:02:43.084Z,55.30
2018-07-17T20:05:11.720Z,55.25
2018-07-17T20:07:41.289Z,56.21
2018-07-17T20:10:09.857Z,56.41
2018-07-17T20:12:38.424Z,56.15
2018-07-17T20:15:07.076Z,56.02
2018-07-17T20:17:35.662Z,55.40
2018-07-17T20:20:04.268Z,55.56
2018-07-17T20:22:32.832Z,55.52
2018-07-17T20:25:01.396Z,54.96
2018-07-17T20:27:29.992Z,54.65
2018-07-17T20:29:58.532Z,54.30
2018-07-17T20:32:27.111Z,54.23
2018-07-17T20:34:55.700Z,54.05
2018-07-17T20:37:24.281Z,54.90
2018-07-17T20:39:52.840Z,54.12
2018-07-17T20:42:21.581Z,54.20
2018-07-17T20:44:50.156Z,54.48
2018-07-17T20:47:18.851Z,54.28
2018-07-17T20:49:47.453Z,54.32
2018-07-17T20:52:16.195Z,53.97
2018-07-17T20:54:44.955Z,53.78
2018-07-17T20:57:14.545Z,53.85
2018-07-17T20:59:43.169Z,54.59
2018-07-17T21:02:11.972Z,54.51
2018-07-17T21:04:40.564Z,53.98
2018-07-17T21:07:09.306Z,54.43
2018-07-17T21:09:38.861Z,54.25
2018-07-17T21:12:07.448Z,54.36
2018-07-17T21:14:36.033Z,54.11
2018-07-17T21:17:04.700Z,54.08
2018-07-17T21:19:33.306Z,53.81
2018-07-17T21:22:01.915Z,54.43
2018-07-17T21:24:30.666Z,54.03
2018-07-17T21:26:59.242Z,53.74
2018-07-17T21:29:27.852Z,53.82
2018-07-17T21:31:56.407Z,53.61
2018-07-17T21:34:24.959Z,52.70
2018-07-17T21:36:53.516Z,51.89
2018-07-17T21:39:22.165Z,50.97
2018-07-17T21:41:50.786Z,50.75
2018-07-17T21:44:20.035Z,50.98
2018-07-17T21:46:48.628Z,50.69
2018-07-17T21:49:19.315Z,50.69
2018-07-17T21:51:47.901Z,50.43
2018-07-17T21:54:16.568Z,50.68
2018-07-17T21:56:45.237Z,49.51
2018-07-17T21:59:13.825Z,49.17
2018-07-17T22:01:42.378Z,49.71
2018-07-17T22:04:11.311Z,50.07
2018-07-17T22:06:40.687Z,49.14
2018-07-17T22:09:16.745Z,49.07
2018-07-17T22:11:45.281Z,49.58
2018-07-17T22:14:13.872Z,49.88
2018-07-17T22:16:44.321Z,49.99
2018-07-17T22:19:17.985Z,49.81
2018-07-17T22:21:46.664Z,50.10
2018-07-17T22:24:15.219Z,50.05
2018-07-17T22:26:44.826Z,49.51
2018-07-17T22:29:13.865Z,50.04
2018-07-17T22:31:42.459Z,49.73
2018-07-17T22:34:11.023Z,50.34
2018-07-17T22:36:39.760Z,50.22
2018-07-17T22:39:09.387Z,50.58
2018-07-17T22:41:38.134Z,50.34
2018-07-17T22:44:07.211Z,50.44
2018-07-17T22:46:35.791Z,50.28
2018-07-17T22:49:04.500Z,50.77
2018-07-17T22:51:33.090Z,51.01
2018-07-17T22:54:01.629Z,50.86
2018-07-17T22:56:30.209Z,51.02
2018-07-17T22:58:58.766Z,51.13
2018-07-17T23:01:27.352Z,51.72
2018-07-17T23:03:55.977Z,51.48
2018-07-17T23:06:24.569Z,51.36
2018-07-17T23:08:53.168Z,51.42
2018-07-17T23:11:22.055Z,51.63
2018-07-17T23:13:50.668Z,52.56
2018-07-17T23:16:19.855Z,52.62
2018-07-17T23:18:48.521Z,52.08
2018-07-17T23:21:17.189Z,52.99
2018-07-17T23:23:45.737Z,53.68
2018-07-17T23:26:14.314Z,54.28
2018-07-17T23:28:42.959Z,54.24
2018-07-17T23:31:11.739Z,55.19
2018-07-17T23:33:40.320Z,55.06
2018-07-17T23:36:09.175Z,56.23
2018-07-17T23:38:37.885Z,56.12
2018-07-17T23:41:06.550Z,56.35
2018-07-17T23:43:35.132Z,56.54
2018-07-17T23:46:03.743Z,57.05
2018-07-17T23:48:32.297Z,56.38
2018-07-17T23:51:00.832Z,55.97
2018-07-17T23:53:29.968Z,56.96
2018-07-17T23:55:58.543Z,56.84
2018-07-17T23:58:27.180Z,56.22
